createdAt,value
2018-09-06T00:01:15.381Z,99.90
2018-09-06T00:03:43.958Z,99.90
2018-09-06T00:06:12.473Z,99.90
2018-09-06T00:08:41.081Z,99.90
2018-09-06T00:11:09.656Z,99.90
2018-09-06T00:13:38.284Z,99.90
2018-09-06T00:16:06.885Z,99.90
2018-09-06T00:18:35.463Z,99.90
2018-09-06T00:21:05.047Z,99.90
2018-09-06T00:23:33.741Z,99.90
2018-09-06T00:26:09.108Z,99.90
2018-09-06T00:28:37.667Z,99.90
2018-09-06T00:31:06.358Z,99.90
2018-09-06T00:33:38.863Z,99.90
2018-09-06T00:36:07.377Z,99.90
2018-09-06T00:38:35.885Z,99.90
2018-09-06T00:41:04.473Z,99.90
2018-09-06T00:43:33.051Z,99.90
2018-09-06T00:46:03.089Z,99.90
2018-09-06T00:48:31.748Z,99.90
2018-09-06T00:51:00.349Z,99.90
2018-09-06T00:53:28.923Z,99.90
2018-09-06T00:55:57.506Z,99.90
2018-09-06T00:58:26.031Z,99.90
2018-09-06T01:00:54.670Z,99.90
2018-09-06T01:03:23.234Z,99.90
2018-09-06T01:05:51.770Z,99.90
2018-09-06T01:08:20.351Z,99.90
2018-09-06T01:10:48.898Z,99.90
2018-09-06T01:13:17.398Z,99.90
2018-09-06T01:15:45.986Z,99.90
2018-09-06T01:18:14.490Z,99.90
2018-09-06T01:20:43.053Z,99.90
2018-09-06T01:23:11.626Z,99.90
2018-09-06T01:25:45.343Z,99.90
2018-09-06T01:28:13.902Z,99.90
2018-09-06T01:30:42.435Z,99.90
2018-09-06T01:33:11.026Z,99.90
2018-09-06T01:35:43.999Z,99.90
2018-09-06T01:38:12.531Z,99.90
2018-09-06T01:40:41.090Z,99.90
2018-09-06T01:43:09.662Z,99.90
2018-09-06T01:45:38.158Z,99.90
2018-09-06T01:51:18.939Z,99.90
2018-09-06T01:53:49.711Z,99.90
2018-09-06T01:56:21.248Z,99.90
2018-09-06T01:58:50.682Z,99.90
2018-09-06T02:01:21.610Z,99.90
2018-09-06T02:03:56.116Z,99.90
2018-09-06T02:06:27.160Z,99.90
2018-09-06T02:08:57.491Z,99.90
2018-09-06T02:11:33.833Z,99.90
2018-09-06T02:14:03.950Z,99.90
2018-09-06T02:16:33.935Z,99.90
2018-09-06T02:19:03.451Z,99.90
2018-09-06T02:21:34.394Z,99.90
2018-09-06T02:24:06.467Z,99.90
2018-09-06T02:26:36.887Z,99.90
2018-09-06T02:29:07.009Z,99.90
2018-09-06T02:31:36.515Z,99.90
2018-09-06T02:34:05.775Z,99.90
2018-09-06T02:36:36.047Z,99.90
2018-09-06T02:39:06.439Z,99.90
2018-09-06T02:41:35.526Z,99.90
2018-09-06T02:44:06.411Z,99.90
2018-09-06T02:46:35.047Z,99.90
2018-09-06T02:49:04.339Z,99.90
2018-09-06T02:51:33.849Z,99.90
2018-09-06T02:54:04.107Z,99.90
2018-09-06T02:56:32.588Z,99.90
2018-09-06T02:59:02.490Z,99.90
2018-09-06T03:01:31.027Z,99.90
2018-09-06T03:04:01.388Z,99.90
2018-09-06T03:10:19.656Z,99.90
2018-09-06T03:12:48.978Z,99.90
2018-09-06T03:15:19.271Z,99.90
2018-09-06T03:17:50.448Z,99.90
2018-09-06T03:20:21.434Z,99.90
2018-09-06T03:22:51.192Z,99.90
2018-09-06T03:25:24.069Z,99.90
2018-09-06T03:27:53.127Z,99.90
2018-09-06T03:30:23.207Z,99.90
2018-09-06T03:32:54.099Z,99.90
2018-09-06T03:35:22.635Z,99.90
2018-09-06T03:37:51.999Z,99.90
2018-09-06T03:40:20.535Z,99.90
2018-09-06T03:42:50.541Z,99.90
2018-09-06T03:47:53.887Z,99.90
2018-09-06T03:50:22.453Z,99.90
2018-09-06T03:52:51.352Z,99.90
2018-09-06T03:55:20.818Z,99.90
2018-09-06T03:57:51.490Z,99.90
2018-09-06T04:00:22.664Z,99.90
2018-09-06T04:02:52.148Z,99.90
2018-09-06T04:05:24.034Z,99.90
2018-09-06T04:07:52.572Z,99.90
2018-09-06T04:10:22.539Z,99.90
2018-09-06T04:12:51.095Z,99.90
2018-09-06T04:15:24.495Z,99.90
2018-09-06T04:17:55.211Z,99.90
2018-09-06T04:20:23.769Z,99.90
2018-09-06T04:22:56.737Z,99.90
2018-09-06T04:25:29.983Z,99.90
2018-09-06T04:28:02.901Z,99.90
2018-09-06T04:33:29.827Z,99.90
2018-09-06T04:35:59.156Z,99.90
2018-09-06T04:38:28.543Z,99.90
2018-09-06T04:40:57.087Z,99.90
2018-09-06T04:43:26.205Z,99.90
2018-09-06T04:45:54.782Z,99.90
2018-09-06T04:48:24.782Z,99.90
2018-09-06T04:50:53.358Z,99.90
2018-09-06T04:53:22.666Z,99.90
2018-09-06T04:55:51.217Z,99.90
2018-09-06T04:58:19.879Z,99.90
2018-09-06T05:00:48.394Z,99.90
2018-09-06T05:03:17.034Z,99.90
2018-09-06T05:05:45.570Z,99.90
2018-09-06T05:08:14.708Z,99.90
2018-09-06T05:10:43.926Z,99.90
2018-09-06T05:13:12.467Z,99.90
2018-09-06T05:15:41.136Z,99.90
2018-09-06T05:18:10.646Z,99.90
2018-09-06T05:20:39.295Z,99.90
2018-09-06T05:23:07.831Z,99.90
2018-09-06T05:25:36.382Z,99.90
2018-09-06T05:28:06.098Z,99.90
2018-09-06T05:30:34.722Z,99.90
2018-09-06T05:33:04.858Z,99.90
2018-09-06T05:35:33.452Z,99.90
2018-09-06T05:38:02.027Z,99.90
2018-09-06T05:40:30.558Z,99.90
2018-09-06T05:42:59.103Z,99.90
2018-09-06T05:45:27.662Z,99.90
2018-09-06T05:48:00.189Z,99.90
2018-09-06T05:50:30.387Z,99.90
2018-09-06T05:53:01.372Z,99.90
2018-09-06T05:55:30.072Z,99.90
2018-09-06T05:57:58.650Z,99.90
2018-09-06T06:00:32.521Z,99.90
2018-09-06T06:03:03.092Z,99.90
2018-09-06T06:05:31.615Z,99.90
2018-09-06T06:08:11.204Z,99.90
2018-09-06T06:10:40.012Z,99.90
2018-09-06T06:13:08.530Z,99.90
2018-09-06T06:15:37.155Z,99.90
2018-09-06T06:18:05.826Z,99.90
2018-09-06T06:20:37.052Z,99.90
2018-09-06T06:23:05.670Z,99.90
2018-09-06T06:25:36.638Z,99.90
2018-09-06T06:28:05.872Z,99.90
2018-09-06T06:30:34.448Z,99.90
2018-09-06T06:33:04.184Z,99.90
2018-09-06T06:35:40.444Z,99.90
2018-09-06T06:38:14.041Z,99.90
2018-09-06T06:40:42.605Z,99.90
2018-09-06T06:43:11.228Z,99.90
2018-09-06T06:45:39.750Z,99.90
2018-09-06T06:48:08.364Z,99.90
2018-09-06T06:50:37.032Z,99.90
2018-09-06T06:53:05.610Z,99.90
2018-09-06T06:55:34.106Z,99.90
2018-09-06T06:58:02.715Z,99.90
2018-09-06T07:00:35.459Z,99.90
2018-09-06T07:03:04.044Z,99.90
2018-09-06T07:05:32.532Z,99.90
2018-09-06T07:08:01.031Z,99.90
2018-09-06T07:13:04.105Z,99.90
2018-09-06T07:15:32.720Z,99.90
2018-09-06T07:18:01.303Z,99.90
2018-09-06T07:20:38.610Z,99.90
2018-09-06T07:23:14.884Z,99.90
2018-09-06T07:25:43.486Z,99.90
2018-09-06T07:28:12.002Z,99.90
2018-09-06T07:30:40.636Z,99.90
2018-09-06T07:33:09.122Z,99.90
2018-09-06T07:35:37.688Z,99.90
2018-09-06T07:38:06.267Z,99.90
2018-09-06T07:40:34.810Z,99.90
2018-09-06T07:43:03.330Z,99.90
2018-09-06T07:45:31.928Z,99.90
2018-09-06T07:48:00.450Z,99.90
2018-09-06T07:50:29.103Z,99.90
2018-09-06T07:52:57.608Z,99.90
2018-09-06T07:55:26.174Z,99.90
2018-09-06T07:57:54.746Z,99.90
2018-09-06T08:00:23.339Z,99.40
2018-09-06T08:02:52.018Z,99.00
2018-09-06T08:05:20.611Z,99.30
2018-09-06T08:07:49.116Z,98.60
2018-09-06T08:10:17.664Z,97.90
2018-09-06T08:12:46.244Z,98.00
2018-09-06T08:15:14.728Z,98.00
2018-09-06T08:17:43.279Z,98.20
2018-09-06T08:20:11.834Z,97.90
2018-09-06T08:22:40.418Z,98.20
2018-09-06T08:25:08.991Z,98.30
2018-09-06T08:27:37.532Z,97.20
2018-09-06T08:30:06.040Z,97.40
2018-09-06T08:32:34.596Z,97.10
2018-09-06T08:35:03.130Z,97.10
2018-09-06T08:37:31.680Z,94.80
2018-09-06T08:40:00.200Z,94.90
2018-09-06T08:42:28.792Z,93.90
2018-09-06T08:44:57.308Z,93.40
2018-09-06T08:47:25.924Z,93.30
2018-09-06T08:49:54.427Z,94.10
2018-09-06T08:52:23.116Z,93.70
2018-09-06T08:54:51.623Z,92.90
2018-09-06T08:57:20.192Z,92.80
2018-09-06T08:59:48.717Z,91.30
2018-09-06T09:02:17.364Z,91.00
2018-09-06T09:04:45.899Z,91.70
2018-09-06T09:07:15.132Z,90.40
2018-09-06T09:09:44.387Z,89.20
2018-09-06T09:12:12.930Z,89.30
2018-09-06T09:14:41.548Z,89.60
2018-09-06T09:17:10.081Z,90.10
2018-09-06T09:19:38.675Z,90.00
2018-09-06T09:22:07.287Z,87.40
2018-09-06T09:24:35.943Z,86.50
2018-09-06T09:27:04.512Z,85.30
2018-09-06T09:29:33.052Z,83.10
2018-09-06T09:32:01.592Z,84.90
2018-09-06T09:34:30.164Z,83.80
2018-09-06T09:36:58.682Z,83.80
2018-09-06T09:39:27.250Z,80.90
2018-09-06T09:41:55.761Z,82.20
2018-09-06T09:44:24.517Z,80.70
2018-09-06T09:49:20.796Z,79.00
2018-09-06T09:51:49.331Z,77.40
2018-09-06T09:54:17.890Z,73.90
2018-09-06T09:56:46.446Z,76.00
2018-09-06T09:59:15.010Z,78.90
2018-09-06T10:01:47.796Z,79.80
2018-09-06T10:17:16.538Z,73.60
2018-09-06T10:19:45.092Z,71.90
2018-09-06T10:22:13.643Z,71.90
2018-09-06T10:24:42.195Z,71.60
2018-09-06T10:27:10.816Z,71.30
2018-09-06T10:29:39.372Z,70.20
2018-09-06T10:32:07.895Z,71.00
2018-09-06T10:34:36.457Z,72.40
2018-09-06T10:37:05.023Z,71.10
2018-09-06T10:39:33.584Z,70.00
2018-09-06T10:42:02.131Z,67.20
2018-09-06T10:44:30.703Z,69.80
2018-09-06T10:46:59.281Z,65.40
2018-09-06T10:49:27.883Z,64.50
2018-09-06T10:51:56.442Z,66.70
2018-09-06T10:54:25.061Z,66.30
2018-09-06T10:56:53.690Z,66.30
2018-09-06T10:59:22.277Z,66.00
2018-09-06T11:01:50.916Z,66.10
2018-09-06T11:04:19.478Z,67.20
2018-09-06T11:06:49.133Z,64.10
2018-09-06T11:09:17.786Z,64.80
2018-09-06T11:11:46.364Z,63.70
2018-09-06T11:14:14.884Z,63.10
2018-09-06T11:16:43.466Z,64.00
2018-09-06T11:19:12.001Z,64.10
2018-09-06T11:24:14.631Z,63.40
2018-09-06T11:26:43.207Z,63.40
2018-09-06T11:29:11.713Z,64.20
2018-09-06T11:31:40.332Z,63.40
2018-09-06T11:34:08.900Z,63.20
2018-09-06T11:36:37.655Z,62.90
2018-09-06T11:39:08.617Z,61.80
2018-09-06T11:41:37.655Z,64.10
2018-09-06T11:44:06.785Z,63.10
2018-09-06T11:46:35.468Z,63.60
2018-09-06T11:49:04.227Z,62.40
2018-09-06T11:51:32.887Z,60.30
2018-09-06T11:54:01.428Z,60.50
2018-09-06T11:56:30.116Z,59.50
2018-09-06T11:58:58.651Z,60.50
2018-09-06T12:01:27.440Z,61.90
2018-09-06T12:03:56.058Z,61.20
2018-09-06T12:06:24.593Z,60.40
2018-09-06T12:08:53.326Z,59.80
2018-09-06T12:11:21.883Z,61.60
2018-09-06T12:13:50.556Z,58.60
2018-09-06T12:16:19.149Z,56.60
2018-09-06T12:18:47.759Z,56.60
2018-09-06T12:21:16.389Z,54.40
2018-09-06T12:23:45.007Z,51.80
2018-09-06T12:26:13.535Z,52.90
2018-09-06T12:28:43.097Z,56.00
2018-09-06T12:31:11.624Z,56.30
2018-09-06T12:33:40.341Z,58.20
2018-09-06T12:36:08.913Z,58.20
2018-09-06T12:38:37.577Z,56.70
2018-09-06T12:41:06.404Z,57.60
2018-09-06T12:46:09.392Z,56.90
2018-09-06T12:48:38.051Z,57.00
2018-09-06T12:51:06.719Z,57.20
2018-09-06T12:53:35.307Z,58.80
2018-09-06T12:56:03.951Z,57.10
2018-09-06T12:58:32.532Z,57.80
2018-09-06T13:06:09.846Z,56.20
2018-09-06T13:08:38.338Z,55.10
2018-09-06T13:11:06.934Z,55.60
2018-09-06T13:13:35.531Z,55.50
2018-09-06T13:16:04.061Z,56.70
2018-09-06T13:18:32.720Z,55.60
2018-09-06T13:21:01.171Z,55.40
2018-09-06T13:23:30.971Z,56.80
2018-09-06T13:25:59.451Z,53.90
2018-09-06T13:28:28.043Z,54.20
2018-09-06T13:30:56.604Z,53.90
2018-09-06T13:33:25.158Z,56.20
2018-09-06T13:35:53.650Z,54.60
2018-09-06T13:38:22.202Z,56.40
2018-09-06T13:40:50.710Z,56.60
2018-09-06T13:43:19.749Z,57.20
2018-09-06T13:45:48.277Z,58.40
2018-09-06T13:48:17.106Z,56.60
2018-09-06T13:50:45.705Z,56.50
2018-09-06T13:53:14.249Z,55.30
2018-09-06T13:55:42.756Z,55.90
2018-09-06T13:58:11.293Z,55.40
2018-09-06T14:03:14.118Z,55.80
2018-09-06T14:05:42.801Z,56.90
2018-09-06T14:08:11.269Z,56.80
2018-09-06T14:13:14.002Z,57.80
2018-09-06T14:15:42.552Z,58.40
2018-09-06T14:18:11.050Z,59.10
2018-09-06T14:20:39.616Z,58.70
2018-09-06T14:23:08.120Z,61.10
2018-09-06T14:25:36.694Z,60.60
2018-09-06T14:28:05.244Z,59.80
2018-09-06T14:30:33.802Z,60.10
2018-09-06T14:33:02.301Z,61.20
2018-09-06T14:35:30.847Z,59.80
2018-09-06T14:37:59.360Z,63.10
2018-09-06T14:40:27.924Z,57.40
2018-09-06T14:42:56.462Z,59.60
2018-09-06T14:45:25.077Z,59.00
2018-09-06T14:47:53.569Z,60.40
2018-09-06T14:50:22.099Z,59.10
2018-09-06T14:52:50.712Z,58.90
2018-09-06T14:55:19.446Z,59.20
2018-09-06T14:57:47.973Z,59.90
2018-09-06T15:00:16.542Z,57.80
2018-09-06T15:02:45.079Z,58.40
2018-09-06T15:05:13.591Z,59.20
2018-09-06T15:07:42.144Z,60.10
2018-09-06T15:10:10.692Z,60.60
2018-09-06T15:12:39.220Z,62.70
2018-09-06T15:15:07.730Z,63.70
2018-09-06T15:17:36.297Z,63.90
2018-09-06T15:20:05.054Z,62.50
2018-09-06T15:22:33.662Z,61.90
2018-09-06T15:25:02.175Z,63.60
2018-09-06T15:27:30.742Z,63.80
2018-09-06T15:29:59.259Z,66.50
2018-09-06T15:32:27.826Z,66.80
2018-09-06T15:34:56.314Z,66.30
2018-09-06T15:37:24.846Z,66.40
2018-09-06T15:39:53.320Z,66.60
2018-09-06T15:42:21.837Z,66.20
2018-09-06T15:44:50.353Z,66.30
2018-09-06T15:47:18.929Z,68.20
2018-09-06T15:49:47.560Z,67.90
2018-09-06T15:52:16.028Z,68.90
2018-09-06T15:54:44.636Z,69.20
2018-09-06T15:57:13.608Z,70.00
2018-09-06T15:59:42.205Z,70.20
2018-09-06T16:02:10.740Z,70.70
2018-09-06T16:04:39.270Z,71.70
2018-09-06T16:07:07.798Z,76.20
2018-09-06T16:09:39.935Z,75.60
2018-09-06T16:12:08.545Z,76.50
2018-09-06T16:14:37.125Z,74.00
2018-09-06T16:17:05.654Z,74.60
2018-09-06T16:19:34.472Z,75.40
2018-09-06T16:22:03.018Z,76.60
2018-09-06T16:24:31.592Z,77.90
2018-09-06T16:27:00.140Z,78.80
2018-09-06T16:29:28.700Z,78.90
2018-09-06T16:31:57.247Z,80.20
2018-09-06T16:34:25.880Z,82.20
2018-09-06T16:36:54.394Z,83.80
2018-09-06T16:44:30.748Z,87.80
2018-09-06T16:46:59.274Z,89.10
2018-09-06T16:49:27.800Z,89.70
2018-09-06T16:51:56.408Z,90.60
2018-09-06T16:54:24.888Z,91.10
2018-09-06T16:56:53.470Z,92.30
2018-09-06T16:59:21.964Z,93.70
2018-09-06T17:01:50.521Z,94.50
2018-09-06T17:04:19.098Z,95.70
2018-09-06T17:06:47.700Z,96.50
2018-09-06T17:09:16.205Z,96.80
2018-09-06T17:14:18.862Z,97.60
2018-09-06T17:16:47.406Z,97.80
2018-09-06T17:19:15.941Z,98.80
2018-09-06T17:21:44.637Z,98.30
2018-09-06T17:24:13.198Z,99.10
2018-09-06T17:26:41.860Z,99.40
2018-09-06T17:29:10.542Z,99.90
2018-09-06T17:31:39.127Z,99.90
2018-09-06T17:34:09.162Z,99.90
2018-09-06T17:36:37.932Z,99.90
2018-09-06T17:41:43.308Z,99.90
2018-09-06T17:44:12.026Z,99.90
2018-09-06T17:46:40.579Z,99.90
2018-09-06T17:49:09.238Z,99.90
2018-09-06T17:51:37.844Z,99.90
2018-09-06T17:54:06.395Z,99.90
2018-09-06T17:56:34.980Z,99.90
2018-09-06T17:59:03.572Z,99.90
2018-09-06T18:01:39.461Z,99.90
2018-09-06T18:04:08.576Z,99.90
2018-09-06T18:06:37.667Z,99.90
2018-09-06T18:09:09.638Z,99.90
2018-09-06T18:11:38.329Z,99.90
2018-09-06T18:14:06.919Z,99.90
2018-09-06T18:16:36.663Z,99.90
2018-09-06T18:19:05.331Z,99.90
2018-09-06T18:21:34.760Z,99.90
2018-09-06T18:24:04.844Z,99.90
2018-09-06T18:26:33.490Z,99.90
2018-09-06T18:29:03.124Z,99.90
2018-09-06T18:31:31.826Z,99.90
2018-09-06T18:34:00.416Z,99.90
2018-09-06T18:36:28.956Z,99.90
2018-09-06T18:38:58.586Z,99.90
2018-09-06T18:41:27.153Z,99.90
2018-09-06T18:43:55.902Z,99.90
2018-09-06T18:46:24.418Z,99.90
2018-09-06T18:48:53.804Z,99.90
2018-09-06T18:51:22.497Z,99.90
2018-09-06T18:53:51.153Z,99.90
2018-09-06T18:56:20.282Z,99.90
2018-09-06T18:58:48.853Z,99.90
2018-09-06T19:01:17.535Z,99.90
2018-09-06T19:03:46.100Z,99.90
2018-09-06T19:06:17.791Z,99.90
2018-09-06T19:08:46.420Z,99.90
2018-09-06T19:16:24.862Z,99.90
2018-09-06T19:18:53.511Z,99.90
2018-09-06T19:21:23.997Z,99.90
2018-09-06T19:23:53.108Z,99.90
2018-09-06T19:26:21.689Z,99.90
2018-09-06T19:28:50.910Z,99.90
2018-09-06T19:33:56.159Z,99.90
2018-09-06T19:36:25.321Z,99.90
2018-09-06T19:38:54.389Z,99.90
2018-09-06T19:41:23.083Z,99.90
2018-09-06T19:43:52.623Z,99.90
2018-09-06T19:46:21.596Z,99.90
2018-09-06T19:48:51.840Z,99.90
2018-09-06T19:51:22.330Z,99.90
2018-09-06T19:53:52.098Z,99.90
2018-09-06T19:56:20.612Z,99.90
2018-09-06T19:58:49.278Z,99.90
2018-09-06T20:01:18.084Z,99.90
2018-09-06T20:03:46.995Z,99.90
2018-09-06T20:06:15.600Z,99.90
2018-09-06T20:08:44.979Z,99.90
2018-09-06T20:11:13.556Z,99.90
2018-09-06T20:13:43.400Z,99.90
2018-09-06T20:16:12.034Z,99.90
2018-09-06T20:18:41.037Z,99.90
2018-09-06T20:21:09.643Z,99.90
2018-09-06T20:23:38.256Z,99.90
2018-09-06T20:26:06.981Z,99.90
2018-09-06T20:28:36.255Z,99.90
2018-09-06T20:31:04.829Z,99.90
2018-09-06T20:33:33.364Z,99.90
2018-09-06T20:36:04.607Z,99.90
2018-09-06T20:38:33.123Z,99.90
2018-09-06T20:41:07.459Z,99.90
2018-09-06T20:43:36.033Z,99.90
2018-09-06T20:46:04.638Z,99.90
2018-09-06T20:48:33.135Z,99.90
2018-09-06T20:51:03.698Z,99.90
2018-09-06T20:53:32.257Z,99.90
2018-09-06T20:56:00.760Z,99.90
2018-09-06T20:58:29.300Z,99.90
2018-09-06T21:00:57.786Z,99.90
2018-09-06T21:03:26.349Z,99.90
2018-09-06T21:05:54.889Z,99.90
2018-09-06T21:08:23.600Z,99.90
2018-09-06T21:10:52.129Z,99.90
2018-09-06T21:13:20.632Z,99.90
2018-09-06T21:15:49.196Z,99.90
2018-09-06T21:18:17.756Z,99.90
2018-09-06T21:20:46.504Z,99.90
2018-09-06T21:23:15.007Z,99.90
2018-09-06T21:25:43.576Z,99.90
2018-09-06T21:28:12.131Z,99.90
2018-09-06T21:30:41.841Z,99.90
2018-09-06T21:33:10.363Z,99.90
2018-09-06T21:35:38.940Z,99.90
2018-09-06T21:38:07.481Z,99.90
2018-09-06T21:43:10.258Z,99.90
2018-09-06T21:45:38.782Z,99.90
2018-09-06T21:58:48.445Z,99.90
2018-09-06T22:01:17.012Z,99.90
2018-09-06T22:03:50.951Z,99.90
2018-09-06T22:06:19.522Z,99.90
2018-09-06T22:08:48.055Z,99.90
2018-09-06T22:11:16.602Z,99.90
2018-09-06T22:13:45.183Z,99.90
2018-09-06T22:16:13.717Z,99.90
2018-09-06T22:18:42.250Z,99.90
2018-09-06T22:21:10.800Z,99.90
2018-09-06T22:23:39.368Z,99.90
2018-09-06T22:26:07.910Z,99.90
2018-09-06T22:28:36.542Z,99.90
2018-09-06T22:31:05.350Z,99.90
2018-09-06T22:33:33.903Z,99.90
2018-09-06T22:36:02.784Z,99.90
2018-09-06T22:38:31.690Z,99.90
2018-09-06T22:41:00.274Z,99.90
2018-09-06T22:43:28.814Z,99.90
2018-09-06T22:45:57.418Z,99.90
2018-09-06T22:48:25.930Z,99.90
2018-09-06T22:50:54.458Z,99.90
2018-09-06T22:53:23.006Z,99.90
2018-09-06T22:55:51.614Z,99.90
2018-09-06T22:58:20.216Z,99.90
2018-09-06T23:00:48.790Z,99.90
2018-09-06T23:03:22.679Z,99.90
2018-09-06T23:05:51.256Z,99.90
2018-09-06T23:08:19.856Z,99.90
2018-09-06T23:10:48.380Z,99.90
2018-09-06T23:13:16.943Z,99.90
2018-09-06T23:15:45.492Z,99.90
2018-09-06T23:18:14.074Z,99.90
2018-09-06T23:20:42.664Z,99.90
2018-09-06T23:23:11.226Z,99.90
2018-09-06T23:25:39.718Z,99.90
2018-09-06T23:28:08.250Z,99.90
2018-09-06T23:30:36.736Z,99.90
2018-09-06T23:33:05.321Z,99.90
2018-09-06T23:35:33.861Z,99.90
2018-09-06T23:38:03.422Z,99.90
2018-09-06T23:40:37.237Z,99.90
2018-09-06T23:43:05.826Z,99.90
2018-09-06T23:45:34.302Z,99.90
2018-09-06T23:48:03.067Z,99.90
2018-09-06T23:50:31.578Z,99.90
2018-09-06T23:53:00.143Z,99.90
2018-09-06T23:55:28.653Z,99.90
2018-09-06T23:57:57.243Z,99.90
